Agate Beach, Washington
Current Conditions -  °F | °C
As of 11:19 PM on Friday 28 Nov 2014 (Local Time) from KCLM Reporting Station
Overcast Overcast  
Wind Chill: -2°   Ceiling: 3600
Heat Index:   Visibility: 10mi
Dew Point: -1°   Wind: 7mph
Humidity: 85%   Direction: 220°SW
Pressure: 29.52"   Gusts: NA
Location:  48.1359°N, 123.734°W
Report Text: KCLM 290719Z AUTO 22006KT 10SM OVC036 02/M01 A2952 RMK AO2 SNE11 P0000 T00171006 $
Loading
Personal Weather Stations






























Interactive Weather Map New forecast layout! Learn more

10-Day Weather Forecast

Advertisements
Track Severe Weather on mobile